Time;durP1;ratioP1;P1;durP2;ratioP2;P2;SDS_P1;SDS_P2;PMS_P1;PMS_P2;Temp;Humidity;BMP_temperature;BMP_pressure;BME280_temperature;BME280_humidity;BME280_pressure;Samples;Min_cycle;Max_cycle;Signal;HPM_P1;HPM_P2
2023/03/21 00:01:56;;;;;;;94.57;29.20;;;11.90;99.90;;;;;;5052275;28;20045;-64
2023/03/21 00:04:23;;;;;;;93.32;29.67;;;12.10;99.90;;;;;;5052594;28;20116;-63
2023/03/21 00:06:49;;;;;;;99.22;31.83;;;14.30;99.90;;;;;;5045562;28;20463;-64
2023/03/21 00:09:15;;;;;;;94.65;29.40;;;12.10;99.90;;;;;;5042191;28;20044;-63
2023/03/21 00:11:41;;;;;;;73.38;27.30;;;14.30;99.90;;;;;;5051777;28;20045;-63
2023/03/21 00:14:07;;;;;;;105.75;32.58;;;12.50;99.90;;;;;;5052256;28;20111;-63
2023/03/21 00:16:34;;;;;;;92.32;28.55;;;12.80;99.90;;;;;;5050410;28;20491;-63
2023/03/21 00:19:02;;;;;;;82.35;31.33;;;11.80;99.90;;;;;;5034857;28;20496;-64
2023/03/21 00:21:31;;;;;;;74.25;29.60;;;12.60;99.90;;;;;;5039068;28;20066;-64
2023/03/21 00:23:57;;;;;;;80.03;31.50;;;12.60;99.90;;;;;;5052191;28;20055;-63
2023/03/21 00:26:23;;;;;;;88.88;32.08;;;13.80;99.90;;;;;;5048497;28;20064;-63
2023/03/21 00:28:49;;;;;;;71.65;28.83;;;12.60;99.90;;;;;;5033873;28;20037;-64
2023/03/21 00:31:16;;;;;;;77.28;28.95;;;13.90;99.90;;;;;;5048677;28;20041;-63
2023/03/21 00:33:42;;;;;;;104.82;30.30;;;14.10;99.90;;;;;;5072253;28;20043;-63
2023/03/21 00:36:08;;;;;;;127.32;35.95;;;13.80;99.90;;;;;;5062419;28;20041;-64
2023/03/21 00:38:35;;;;;;;94.93;33.65;;;13.40;99.90;;;;;;5050509;28;20413;-63
2023/03/21 00:41:05;;;;;;;82.90;33.65;;;12.10;99.90;;;;;;5048229;28;20041;-64
2023/03/21 00:43:31;;;;;;;87.80;35.78;;;14.50;99.90;;;;;;5043436;28;20045;-63
2023/03/21 00:45:58;;;;;;;73.72;31.02;;;12.30;99.90;;;;;;5051930;28;20056;-63
2023/03/21 00:48:24;;;;;;;84.55;33.88;;;12.70;99.90;;;;;;5050315;28;20118;-63
2023/03/21 00:50:51;;;;;;;89.00;32.80;;;14.50;99.90;;;;;;5051236;28;20045;-63
2023/03/21 00:53:17;;;;;;;69.13;30.60;;;12.10;99.90;;;;;;5036889;28;20131;-63
2023/03/21 00:55:43;;;;;;;119.32;36.22;;;14.60;99.90;;;;;;5030508;28;20092;-63
2023/03/21 00:58:10;;;;;;;84.75;35.08;;;14.10;99.90;;;;;;5030226;28;20453;-63
2023/03/21 01:00:36;;;;;;;67.57;31.30;;;14.40;99.90;;;;;;5034879;28;20084;-63
2023/03/21 01:03:06;;;;;;;76.30;33.25;;;12.10;99.90;;;;;;5031670;28;20083;-63
2023/03/21 01:08:23;;;;;;;85.00;35.40;;;12.80;99.90;;;;;;5051406;28;20080;-63
2023/03/21 01:10:50;;;;;;;79.80;33.92;;;14.50;99.90;;;;;;5050351;28;20041;-63
2023/03/21 01:13:18;;;;;;;67.60;30.38;;;12.40;99.90;;;;;;5051623;28;20579;-63
2023/03/21 01:15:52;;;;;;;73.15;31.67;;;14.50;99.90;;;;;;5051235;28;20052;-63
2023/03/21 01:18:20;;;;;;;82.03;32.75;;;14.40;99.90;;;;;;5032571;28;20380;-63
2023/03/21 01:20:46;;;;;;;67.35;30.80;;;12.80;99.90;;;;;;5045902;28;20048;-63
2023/03/21 01:23:14;;;;;;;75.97;33.22;;;14.10;99.90;;;;;;5050846;28;20090;-63
2023/03/21 01:25:40;;;;;;;65.53;29.55;;;13.70;99.90;;;;;;5045580;28;20103;-63
2023/03/21 01:28:06;;;;;;;110.28;36.47;;;12.40;99.90;;;;;;5031207;28;20084;-63
2023/03/21 01:30:32;;;;;;;60.97;27.58;;;12.60;99.90;;;;;;5046486;28;20499;-63
2023/03/21 01:32:58;;;;;;;78.28;31.52;;;12.60;99.90;;;;;;5048194;28;21246;-63
2023/03/21 01:35:23;;;;;;;89.93;32.17;;;14.10;99.90;;;;;;5050018;28;20090;-63
2023/03/21 01:37:50;;;;;;;55.90;25.42;;;13.60;99.90;;;;;;5042160;28;20033;-63
2023/03/21 01:40:19;;;;;;;71.55;30.60;;;14.90;99.90;;;;;;5051172;28;21529;-63
2023/03/21 01:42:45;;;;;;;65.57;28.23;;;12.30;99.90;;;;;;5031574;28;20037;-63
2023/03/21 01:45:48;;;;;;;60.35;27.90;;;12.30;99.90;;;;;;5038621;28;20045;-63
2023/03/21 01:48:14;;;;;;;70.65;31.15;;;12.30;99.90;;;;;;5059044;28;20044;-63
2023/03/21 01:50:41;;;;;;;63.67;27.15;;;12.30;99.90;;;;;;5052846;28;20037;-63
2023/03/21 01:53:08;;;;;;;79.63;32.00;;;14.80;99.90;;;;;;5048559;28;20048;-63
2023/03/21 01:55:35;;;;;;;75.57;28.17;;;13.50;99.90;;;;;;5048029;28;20036;-63
2023/03/21 01:58:03;;;;;;;71.05;30.60;;;14.90;99.90;;;;;;5053897;28;20087;-64
2023/03/21 02:00:30;;;;;;;73.70;31.00;;;13.50;99.90;;;;;;5039350;28;20064;-64
2023/03/21 02:03:00;;;;;;;64.13;29.08;;;13.70;99.90;;;;;;5049267;28;20049;-64
2023/03/21 02:05:40;;;;;;;97.22;33.63;;;13.40;99.90;;;;;;5050317;28;20044;-63
2023/03/21 02:08:06;;;;;;;114.45;34.97;;;13.90;99.90;;;;;;5041889;28;20383;-64
2023/03/21 02:10:32;;;;;;;113.00;35.75;;;14.70;99.90;;;;;;5030582;28;20553;-64
2023/03/21 02:13:08;;;;;;;113.93;35.42;;;12.90;99.90;;;;;;5043265;28;20033;-63
2023/03/21 02:15:35;;;;;;;128.05;35.15;;;12.50;99.90;;;;;;5050381;28;20045;-64
2023/03/21 02:18:13;;;;;;;105.20;31.05;;;12.40;99.90;;;;;;5050552;28;20614;-64
2023/03/21 02:21:06;;;;;;;151.40;34.90;;;14.30;99.90;;;;;;5049165;28;20557;-63
2023/03/21 02:23:50;;;;;;;118.68;33.45;;;12.20;99.90;;;;;;5050421;28;20076;-64
2023/03/21 02:26:46;;;;;;;143.63;35.58;;;14.90;99.90;;;;;;5031522;28;20426;-64
2023/03/21 02:29:15;;;;;;;201.65;40.28;;;13.80;99.90;;;;;;5050389;28;20037;-63
2023/03/21 02:32:16;;;;;;;194.05;39.78;;;13.70;99.90;;;;;;5049325;28;20053;-63
2023/03/21 02:34:49;;;;;;;211.43;38.45;;;12.80;99.90;;;;;;5045247;28;20102;-63
2023/03/21 02:37:22;;;;;;;133.23;30.92;;;14.40;99.90;;;;;;5050371;28;20033;-63
2023/03/21 02:40:15;;;;;;;166.70;35.60;;;12.70;99.90;;;;;;5046295;28;20455;-63
2023/03/21 02:43:03;;;;;;;179.30;37.58;;;14.70;99.90;;;;;;5029680;28;20434;-63
2023/03/21 02:45:41;;;;;;;95.60;28.23;;;14.70;99.90;;;;;;5030395;28;20416;-63
2023/03/21 02:48:12;;;;;;;126.25;31.38;;;14.40;99.90;;;;;;5030364;28;20034;-63
2023/03/21 02:50:45;;;;;;;117.53;32.00;;;14.90;99.90;;;;;;5045993;28;20056;-63
2023/03/21 02:53:14;;;;;;;171.25;38.83;;;14.10;99.90;;;;;;5036362;28;20041;-63
2023/03/21 02:55:41;;;;;;;88.13;29.85;;;13.10;99.90;;;;;;5038460;28;20072;-63
2023/03/21 02:58:10;;;;;;;134.30;37.03;;;14.00;99.90;;;;;;5032631;28;20041;-63
2023/03/21 03:00:37;;;;;;;165.00;39.28;;;12.50;99.90;;;;;;5048614;28;20052;-63
2023/03/21 03:03:03;;;;;;;125.78;35.15;;;12.30;99.90;;;;;;5044832;28;20037;-63
2023/03/21 03:05:34;;;;;;;126.18;38.65;;;14.40;99.90;;;;;;5055952;28;20039;-63
2023/03/21 03:08:18;;;;;;;173.63;44.97;;;12.30;99.90;;;;;;5052867;28;20037;-63
2023/03/21 03:11:20;;;;;;;213.38;50.35;;;14.00;99.90;;;;;;5053640;28;20049;-63
2023/03/21 03:14:15;;;;;;;215.68;49.53;;;12.60;99.90;;;;;;5044489;28;20040;-63
2023/03/21 03:16:50;;;;;;;140.05;40.35;;;13.90;99.90;;;;;;5034277;28;20068;-63
2023/03/21 03:19:31;;;;;;;112.15;37.58;;;14.20;99.90;;;;;;5041818;28;20040;-63
2023/03/21 03:22:06;;;;;;;102.68;36.83;;;13.60;99.90;;;;;;5053210;28;20102;-63
2023/03/21 03:24:37;;;;;;;90.45;36.25;;;14.70;99.90;;;;;;5052242;28;20087;-63
2023/03/21 03:27:09;;;;;;;97.03;34.55;;;13.40;99.90;;;;;;5053472;28;20033;-63
2023/03/21 03:29:38;;;;;;;115.95;39.90;;;14.00;99.90;;;;;;5052681;28;20081;-63
2023/03/21 03:32:11;;;;;;;127.15;40.03;;;12.70;99.90;;;;;;5051000;28;20067;-63
2023/03/21 03:34:40;;;;;;;112.68;37.17;;;12.90;99.90;;;;;;5033232;28;20120;-63
2023/03/21 03:37:09;;;;;;;99.75;36.58;;;13.90;99.90;;;;;;5032902;28;20072;-63
2023/03/21 03:39:39;;;;;;;116.65;38.88;;;14.60;99.90;;;;;;5033002;28;20051;-63
2023/03/21 03:42:15;;;;;;;111.25;37.88;;;12.40;99.90;;;;;;5033163;28;20037;-63
2023/03/21 03:44:40;;;;;;;107.60;36.47;;;12.60;99.90;;;;;;5033094;28;20081;-63
2023/03/21 03:47:21;;;;;;;128.02;37.40;;;12.30;99.90;;;;;;5033247;28;20115;-63
2023/03/21 03:49:54;;;;;;;179.52;41.30;;;12.20;99.90;;;;;;5033386;28;20033;-63
2023/03/21 03:52:28;;;;;;;136.00;35.58;;;14.10;99.90;;;;;;5032938;28;20534;-63
2023/03/21 03:54:54;;;;;;;195.98;40.65;;;12.60;99.90;;;;;;5032927;28;20034;-64
2023/03/21 03:57:21;;;;;;;158.88;37.05;;;14.70;99.90;;;;;;5032587;28;20052;-63
2023/03/21 03:59:47;;;;;;;122.70;33.42;;;14.80;99.90;;;;;;5033496;28;20064;-63
2023/03/21 04:02:13;;;;;;;166.60;38.22;;;14.30;99.90;;;;;;5051997;28;20040;-62
2023/03/21 04:04:40;;;;;;;114.90;31.63;;;12.70;99.90;;;;;;5046113;28;20033;-63
2023/03/21 04:07:06;;;;;;;116.65;33.55;;;14.90;99.90;;;;;;5050055;28;20040;-63
2023/03/21 04:09:32;;;;;;;106.55;31.00;;;13.20;99.90;;;;;;5052019;28;20029;-63
2023/03/21 04:11:57;;;;;;;104.95;30.63;;;13.10;99.90;;;;;;5051132;28;20526;-63
2023/03/21 04:14:24;;;;;;;110.55;32.28;;;13.20;99.90;;;;;;5050846;28;20048;-63
2023/03/21 04:16:51;;;;;;;132.57;35.53;;;13.40;99.90;;;;;;5047792;28;20064;-63
2023/03/21 04:19:17;;;;;;;81.90;28.15;;;15.10;99.90;;;;;;5032921;28;20080;-63
2023/03/21 04:21:45;;;;;;;103.88;32.00;;;13.10;99.90;;;;;;5049667;28;20048;-63
2023/03/21 04:24:12;;;;;;;94.70;29.73;;;14.20;99.90;;;;;;5057086;28;20095;-63
2023/03/21 04:26:38;;;;;;;77.82;28.40;;;14.70;99.90;;;;;;5062239;28;20135;-63
2023/03/21 04:29:04;;;;;;;82.78;28.58;;;13.10;99.90;;;;;;5071980;28;20123;-63
2023/03/21 04:31:33;;;;;;;62.60;25.83;;;12.40;99.90;;;;;;5068292;28;20041;-63
2023/03/21 04:34:01;;;;;;;59.45;23.98;;;12.30;99.90;;;;;;5052161;28;20044;-63
2023/03/21 04:36:29;;;;;;;79.47;28.38;;;13.30;99.90;;;;;;5051785;28;20057;-63
2023/03/21 04:38:59;;;;;;;64.00;26.20;;;13.00;99.90;;;;;;5051917;28;20080;-63
2023/03/21 04:41:29;;;;;;;55.38;25.25;;;12.40;99.90;;;;;;5040330;28;20132;-63
2023/03/21 04:43:55;;;;;;;56.58;25.70;;;13.30;99.90;;;;;;5030481;28;20049;-63
2023/03/21 04:46:21;;;;;;;53.90;26.35;;;14.60;99.90;;;;;;5034778;28;20136;-63
2023/03/21 04:48:47;;;;;;;50.58;25.95;;;12.40;99.90;;;;;;5051389;28;20041;-63
2023/03/21 04:51:14;;;;;;;56.78;28.02;;;12.20;99.90;;;;;;5050977;28;20368;-63
2023/03/21 04:53:43;;;;;;;74.50;31.25;;;12.30;99.90;;;;;;5051632;28;20041;-63
2023/03/21 04:56:10;;;;;;;74.93;31.75;;;15.10;99.90;;;;;;5051712;28;20379;-63
2023/03/21 04:58:36;;;;;;;58.85;27.92;;;14.70;99.90;;;;;;5049340;28;20048;-63
2023/03/21 05:01:01;;;;;;;63.42;29.67;;;14.30;99.90;;;;;;5050934;28;20045;-63
2023/03/21 05:03:33;;;;;;;54.92;27.20;;;12.90;99.90;;;;;;5037442;28;20037;-63
2023/03/21 05:06:01;;;;;;;52.97;27.83;;;12.50;99.90;;;;;;5044023;28;20064;-63
2023/03/21 05:08:27;;;;;;;48.72;26.27;;;14.00;99.90;;;;;;5038444;28;20533;-63
2023/03/21 05:10:53;;;;;;;60.92;29.05;;;14.00;99.90;;;;;;5031415;28;20077;-63
2023/03/21 05:13:19;;;;;;;61.70;30.13;;;15.10;99.90;;;;;;5031280;28;20450;-63
2023/03/21 05:15:45;;;;;;;53.05;28.33;;;14.30;99.90;;;;;;5044283;28;20056;-63
2023/03/21 05:18:10;;;;;;;46.20;25.90;;;14.40;99.90;;;;;;5051327;28;20407;-63
2023/03/21 05:20:43;;;;;;;35.08;21.15;;;12.10;99.90;;;;;;5036441;28;20037;-63
2023/03/21 05:23:12;;;;;;;42.35;22.80;;;13.20;99.90;;;;;;5038289;28;20057;-63
2023/03/21 05:25:38;;;;;;;25.95;16.33;;;13.90;99.90;;;;;;5033442;28;20037;-63
2023/03/21 05:28:05;;;;;;;29.25;18.15;;;12.60;99.90;;;;;;5046507;28;20045;-63
2023/03/21 05:30:31;;;;;;;33.20;19.63;;;14.80;99.90;;;;;;5030247;28;20053;-63
2023/03/21 05:32:57;;;;;;;27.92;17.65;;;13.50;99.90;;;;;;5036894;28;20041;-63
2023/03/21 05:35:23;;;;;;;28.88;17.20;;;14.90;99.90;;;;;;5037061;28;20049;-63
2023/03/21 05:37:48;;;;;;;19.45;13.35;;;12.80;99.90;;;;;;5037525;28;20028;-63
2023/03/21 05:40:14;;;;;;;22.05;14.90;;;13.90;99.90;;;;;;5060166;28;20440;-63
2023/03/21 05:42:40;;;;;;;24.42;14.15;;;13.10;99.90;;;;;;5033832;28;20114;-64
2023/03/21 05:45:06;;;;;;;27.23;15.60;;;12.50;99.90;;;;;;5031075;28;20029;-63
2023/03/21 05:47:31;;;;;;;19.42;13.82;;;13.40;99.90;;;;;;5037410;28;20033;-63
2023/03/21 05:49:57;;;;;;;29.20;14.90;;;15.30;99.90;;;;;;5030050;28;20041;-64
2023/03/21 05:52:23;;;;;;;15.32;11.70;;;14.50;99.90;;;;;;5037640;28;20415;-64
2023/03/21 05:54:48;;;;;;;15.30;10.93;;;12.50;99.90;;;;;;5030667;28;20117;-63
2023/03/21 05:57:14;;;;;;;20.50;12.25;;;13.00;99.90;;;;;;5030030;28;20045;-63
2023/03/21 05:59:40;;;;;;;22.90;14.18;;;12.00;99.90;;;;;;5034359;28;20037;-63
2023/03/21 06:02:06;;;;;;;15.68;10.23;;;12.70;99.90;;;;;;5036863;28;20037;-64
2023/03/21 06:04:31;;;;;;;18.63;13.27;;;14.20;99.90;;;;;;5041934;28;20033;-64
2023/03/21 06:06:57;;;;;;;24.38;14.32;;;13.20;99.90;;;;;;5039604;28;20040;-63
2023/03/21 06:09:23;;;;;;;16.55;10.70;;;12.30;99.90;;;;;;5031778;28;20034;-63
2023/03/21 06:11:51;;;;;;;16.17;11.45;;;15.30;99.90;;;;;;5030571;28;20510;-63
2023/03/21 06:14:18;;;;;;;30.25;15.40;;;12.40;99.90;;;;;;5037385;28;20483;-64
2023/03/21 06:16:44;;;;;;;24.80;14.93;;;13.60;99.90;;;;;;5041762;28;20848;-64
2023/03/21 06:19:09;;;;;;;30.52;16.92;;;15.20;99.90;;;;;;5030366;28;20149;-64
2023/03/21 06:21:35;;;;;;;24.58;15.82;;;15.20;99.90;;;;;;5043937;28;20140;-63
2023/03/21 06:24:01;;;;;;;17.80;13.18;;;13.90;99.90;;;;;;5041325;28;20045;-63
2023/03/21 06:26:26;;;;;;;27.30;16.67;;;13.70;99.90;;;;;;5047692;28;20041;-64
2023/03/21 06:28:53;;;;;;;27.45;15.65;;;15.60;99.90;;;;;;5032786;28;20030;-64
2023/03/21 06:31:23;;;;;;;22.35;13.05;;;12.20;99.90;;;;;;5030168;28;20562;-64
2023/03/21 06:33:50;;;;;;;24.08;14.25;;;14.40;99.90;;;;;;5034641;28;20449;-64
2023/03/21 06:36:16;;;;;;;29.02;15.10;;;13.10;99.90;;;;;;5033011;28;20446;-64
2023/03/21 06:38:42;;;;;;;19.90;14.10;;;14.70;99.90;;;;;;5033812;28;20040;-63
2023/03/21 06:41:09;;;;;;;26.35;14.80;;;14.00;99.90;;;;;;5031123;28;20057;-64
2023/03/21 06:43:35;;;;;;;19.25;13.35;;;12.50;99.90;;;;;;5039383;28;20086;-64
2023/03/21 06:46:01;;;;;;;17.10;12.65;;;15.50;99.90;;;;;;5034041;28;20080;-64
2023/03/21 06:48:27;;;;;;;13.68;11.15;;;12.20;99.90;;;;;;5033735;28;20061;-64
2023/03/21 06:50:53;;;;;;;12.48;8.60;;;12.60;99.90;;;;;;5036803;28;21052;-64
2023/03/21 06:53:23;;;;;;;14.57;10.02;;;15.30;99.90;;;;;;5048281;28;20126;-64
2023/03/21 06:55:55;;;;;;;12.23;8.85;;;15.70;99.90;;;;;;5046372;28;20034;-64
2023/03/21 06:58:22;;;;;;;15.82;10.05;;;14.80;99.90;;;;;;5034896;28;20044;-64
2023/03/21 07:00:48;;;;;;;17.10;10.15;;;12.50;99.90;;;;;;5042667;28;20579;-64
2023/03/21 07:03:14;;;;;;;15.43;8.77;;;14.30;99.90;;;;;;5039601;28;20076;-64
2023/03/21 07:05:40;;;;;;;16.55;9.65;;;15.70;99.90;;;;;;5043503;28;20037;-64
2023/03/21 07:08:09;;;;;;;18.10;10.50;;;12.30;99.90;;;;;;5038758;28;20056;-64
2023/03/21 07:10:38;;;;;;;17.13;9.40;;;16.00;99.90;;;;;;5038428;28;20049;-64
2023/03/21 07:13:04;;;;;;;17.48;10.20;;;12.30;99.90;;;;;;5038808;28;20044;-63
2023/03/21 07:15:30;;;;;;;14.40;10.02;;;12.30;99.90;;;;;;5047188;28;20388;-64
2023/03/21 07:17:55;;;;;;;15.18;9.77;;;15.70;99.90;;;;;;5049374;28;20052;-64
2023/03/21 07:20:21;;;;;;;14.23;9.10;;;13.00;99.90;;;;;;5042235;28;20534;-63
2023/03/21 07:22:47;;;;;;;17.98;10.05;;;15.70;99.90;;;;;;5043418;28;20106;-64
2023/03/21 07:25:12;;;;;;;18.38;10.35;;;14.50;99.90;;;;;;5041650;28;20656;-64
2023/03/21 07:27:38;;;;;;;17.42;9.52;;;16.20;99.90;;;;;;5035763;28;20486;-65
2023/03/21 07:30:05;;;;;;;17.02;9.30;;;15.70;99.90;;;;;;5044321;28;20033;-64
2023/03/21 07:32:32;;;;;;;15.80;9.57;;;14.80;99.90;;;;;;5036453;28;20029;-64
2023/03/21 07:34:59;;;;;;;20.48;9.85;;;13.50;99.90;;;;;;5042213;28;20064;-64
2023/03/21 07:37:25;;;;;;;13.70;7.88;;;12.20;99.90;;;;;;5045066;28;20081;-64
2023/03/21 07:39:50;;;;;;;18.20;9.45;;;13.70;99.90;;;;;;5035086;28;20042;-64
2023/03/21 07:42:16;;;;;;;16.88;9.60;;;12.30;99.90;;;;;;5037774;28;20513;-64
2023/03/21 07:44:42;;;;;;;15.93;8.45;;;15.40;99.90;;;;;;5055714;28;20477;-64
2023/03/21 07:47:07;;;;;;;12.65;7.78;;;12.40;99.90;;;;;;5044441;28;20040;-65
2023/03/21 07:49:33;;;;;;;15.60;9.23;;;12.50;99.90;;;;;;5032082;28;20120;-64
2023/03/21 07:52:00;;;;;;;14.57;8.68;;;14.80;99.90;;;;;;5043693;28;20094;-64
2023/03/21 07:54:27;;;;;;;14.50;8.63;;;16.20;99.90;;;;;;5038849;28;20063;-65
2023/03/21 07:56:53;;;;;;;12.05;6.95;;;14.90;99.90;;;;;;5037158;28;20049;-65
2023/03/21 07:59:19;;;;;;;11.38;7.68;;;14.70;99.90;;;;;;5044981;28;20056;-65
2023/03/21 08:01:44;;;;;;;14.80;10.55;;;16.30;99.90;;;;;;5050654;28;20044;-70
2023/03/21 08:04:10;;;;;;;14.07;9.57;;;16.10;99.90;;;;;;5047250;28;20044;-65
2023/03/21 08:06:36;;;;;;;13.95;9.40;;;14.80;99.90;;;;;;5036584;28;20120;-63
2023/03/21 08:09:02;;;;;;;12.05;9.68;;;16.40;99.90;;;;;;5043157;28;20119;-62
2023/03/21 08:11:31;;;;;;;9.95;7.18;;;14.30;99.90;;;;;;5032850;28;20454;-62
2023/03/21 08:13:58;;;;;;;13.98;7.72;;;16.30;99.90;;;;;;5044667;28;20053;-62
2023/03/21 08:16:24;;;;;;;13.25;8.38;;;12.50;99.90;;;;;;5038186;28;20038;-68
2023/03/21 08:18:50;;;;;;;11.75;7.38;;;16.40;99.90;;;;;;5031125;28;20116;-61
2023/03/21 08:21:15;;;;;;;14.23;8.63;;;13.30;99.90;;;;;;5032769;28;20144;-64
2023/03/21 08:23:41;;;;;;;15.43;8.52;;;14.20;99.90;;;;;;5030172;28;20049;-64
2023/03/21 08:26:08;;;;;;;21.60;10.07;;;14.40;99.90;;;;;;5037661;28;20033;-63
2023/03/21 08:28:35;;;;;;;17.38;11.73;;;14.70;99.90;;;;;;5040533;28;20041;-64
2023/03/21 08:31:06;;;;;;;22.20;15.82;;;14.10;99.90;;;;;;5041055;28;20263;-64
2023/03/21 08:33:31;;;;;;;25.52;16.27;;;13.50;99.90;;;;;;5034498;28;20034;-64
2023/03/21 08:35:59;;;;;;;28.85;18.95;;;12.60;99.90;;;;;;5044512;28;20041;-64
2023/03/21 08:38:28;;;;;;;26.80;18.05;;;14.40;99.90;;;;;;5037334;28;20083;-63
2023/03/21 08:40:54;;;;;;;25.83;17.88;;;15.00;99.90;;;;;;5047337;28;20043;-63
2023/03/21 08:43:20;;;;;;;29.98;20.20;;;16.50;99.90;;;;;;5035869;28;20051;-63
2023/03/21 08:45:45;;;;;;;25.77;16.90;;;13.50;99.90;;;;;;5039926;28;20402;-64
2023/03/21 08:48:11;;;;;;;37.17;22.08;;;13.30;99.90;;;;;;5044513;28;20034;-63
2023/03/21 08:50:37;;;;;;;27.95;20.60;;;12.70;99.90;;;;;;5034821;28;20033;-63
2023/03/21 08:53:02;;;;;;;29.40;20.67;;;13.10;99.90;;;;;;5039994;28;20029;-64
2023/03/21 08:55:29;;;;;;;33.63;22.85;;;14.30;99.90;;;;;;5041802;28;20042;-64
2023/03/21 08:57:54;;;;;;;34.78;24.40;;;13.40;99.90;;;;;;5031589;28;20061;-64
2023/03/21 09:00:20;;;;;;;34.72;25.17;;;15.50;99.90;;;;;;5035196;28;20037;-63
2023/03/21 09:02:48;;;;;;;44.22;31.35;;;15.80;99.90;;;;;;5047658;28;20037;-64
2023/03/21 09:05:15;;;;;;;35.03;23.77;;;13.80;99.90;;;;;;5045662;28;20127;-64
2023/03/21 09:07:41;;;;;;;35.15;25.10;;;15.40;99.90;;;;;;5035125;28;20040;-64
2023/03/21 09:10:10;;;;;;;33.80;22.60;;;14.70;99.90;;;;;;5041599;28;20041;-64
2023/03/21 09:12:36;;;;;;;45.67;26.27;;;16.30;99.90;;;;;;5038575;28;20033;-63
2023/03/21 09:15:03;;;;;;;43.60;23.27;;;15.60;99.90;;;;;;5042870;28;20095;-64
2023/03/21 09:17:30;;;;;;;43.63;23.63;;;12.70;99.90;;;;;;5037418;28;20044;-64
2023/03/21 09:19:59;;;;;;;34.65;22.58;;;13.30;99.90;;;;;;5041315;28;20044;-64
2023/03/21 09:22:26;;;;;;;34.53;22.67;;;12.50;99.90;;;;;;5042443;28;20430;-64
2023/03/21 09:24:52;;;;;;;38.78;22.80;;;12.30;99.90;;;;;;5036209;28;20128;-64
2023/03/21 09:27:21;;;;;;;40.03;25.15;;;16.00;99.90;;;;;;5043170;28;20037;-63
2023/03/21 09:29:48;;;;;;;41.65;24.60;;;13.80;99.90;;;;;;5034237;28;20038;-64
2023/03/21 09:32:14;;;;;;;39.80;24.67;;;13.60;99.90;;;;;;5043773;28;20140;-64
2023/03/21 09:34:40;;;;;;;33.40;21.25;;;15.30;99.90;;;;;;5046118;28;20420;-63
2023/03/21 09:37:12;;;;;;;31.63;20.80;;;14.50;99.90;;;;;;5035932;28;20033;-63
2023/03/21 09:39:39;;;;;;;32.38;20.55;;;12.80;99.90;;;;;;5040793;28;20059;-63
2023/03/21 09:42:45;;;;;;;30.55;20.67;;;15.40;99.90;;;;;;5042751;28;20057;-63
2023/03/21 09:45:11;;;;;;;40.95;23.15;;;13.50;99.90;;;;;;5059622;28;20041;-63
2023/03/21 09:47:51;;;;;;;38.10;22.92;;;15.10;99.90;;;;;;5032616;28;20090;-64
2023/03/21 09:50:32;;;;;;;28.25;17.25;;;14.80;99.90;;;;;;5040498;28;20033;-63
2023/03/21 09:53:34;;;;;;;31.77;19.88;;;16.20;99.90;;;;;;5036674;28;20045;-64
2023/03/21 09:56:01;;;;;;;26.02;16.15;;;14.50;99.90;;;;;;5030526;28;20045;-63
2023/03/21 09:58:39;;;;;;;34.20;17.38;;;15.00;99.90;;;;;;5034080;28;20041;-64
2023/03/21 10:01:27;;;;;;;27.30;15.88;;;14.40;99.90;;;;;;5040928;28;20095;-63
2023/03/21 10:03:55;;;;;;;23.08;13.77;;;15.40;99.90;;;;;;5035622;28;20043;-63
2023/03/21 10:06:27;;;;;;;25.40;15.38;;;13.00;99.90;;;;;;5042806;28;20420;-64
2023/03/21 10:09:05;;;;;;;27.88;14.55;;;17.30;99.90;;;;;;5045744;28;20069;-63
2023/03/21 10:11:40;;;;;;;21.40;12.43;;;14.90;99.90;;;;;;5042343;28;20534;-63
2023/03/21 10:14:12;;;;;;;31.15;16.27;;;18.00;99.90;;;;;;5047138;28;20502;-64
2023/03/21 10:16:43;;;;;;;22.92;12.55;;;18.50;99.90;;;;;;5048619;28;20071;-64
2023/03/21 10:19:16;;;;;;;27.60;15.05;;;13.00;99.90;;;;;;5049403;28;20040;-64
2023/03/21 10:21:46;;;;;;;20.70;12.70;;;14.60;99.90;;;;;;5048921;28;20054;-63
2023/03/21 10:24:16;;;;;;;20.77;11.93;;;13.00;99.90;;;;;;5042238;28;20041;-64
2023/03/21 10:26:43;;;;;;;19.85;11.48;;;17.20;99.90;;;;;;5049689;28;20155;-63
2023/03/21 10:29:13;;;;;;;20.75;12.43;;;13.00;99.90;;;;;;5045232;28;20045;-63
2023/03/21 10:31:40;;;;;;;20.38;11.95;;;13.20;99.90;;;;;;5039951;28;20047;-63
2023/03/21 10:34:33;;;;;;;17.35;9.82;;;15.80;99.90;;;;;;5049687;28;20041;-64
2023/03/21 10:37:00;;;;;;;16.75;9.52;;;13.20;99.90;;;;;;5050360;28;20356;-63
2023/03/21 10:39:29;;;;;;;15.75;9.85;;;14.10;99.90;;;;;;5042277;28;20033;-63
2023/03/21 10:41:55;;;;;;;22.30;10.82;;;17.90;99.90;;;;;;5039428;28;20040;-63
2023/03/21 10:44:21;;;;;;;15.88;10.15;;;16.40;99.90;;;;;;5045108;28;20402;-63
2023/03/21 10:46:54;;;;;;;20.33;10.63;;;14.20;99.90;;;;;;5046935;28;20381;-64
2023/03/21 10:49:20;;;;;;;17.02;9.18;;;15.80;99.90;;;;;;5032526;28;20132;-63
2023/03/21 10:51:50;;;;;;;23.02;11.07;;;13.50;99.90;;;;;;5044828;28;20052;-63
2023/03/21 10:54:18;;;;;;;18.15;10.13;;;13.30;99.90;;;;;;5038144;28;20042;-63
2023/03/21 10:56:54;;;;;;;18.77;10.38;;;15.90;99.90;;;;;;5052542;28;20404;-63
2023/03/21 10:59:21;;;;;;;22.90;11.20;;;15.90;99.90;;;;;;5038295;28;20552;-63
2023/03/21 11:01:54;;;;;;;20.85;11.40;;;18.80;99.90;;;;;;5044498;28;20438;-63
2023/03/21 11:04:23;;;;;;;16.42;10.63;;;15.90;99.90;;;;;;5038220;28;20041;-63
2023/03/21 11:06:55;;;;;;;21.10;11.00;;;17.20;99.90;;;;;;5039671;28;20045;-63
2023/03/21 11:09:24;;;;;;;19.67;11.23;;;14.30;99.90;;;;;;5046045;28;20049;-63
2023/03/21 11:12:05;;;;;;;18.75;10.95;;;14.10;99.90;;;;;;5043445;28;20145;-63
2023/03/21 11:14:36;;;;;;;24.20;12.00;;;16.90;99.90;;;;;;5042493;28;20041;-63
2023/03/21 11:17:18;;;;;;;19.73;11.15;;;14.80;99.90;;;;;;5042610;28;20041;-63
2023/03/21 11:19:51;;;;;;;17.13;10.88;;;13.90;99.90;;;;;;5048939;28;20033;-63
2023/03/21 11:22:20;;;;;;;17.92;10.60;;;14.10;99.90;;;;;;5034344;28;20048;-63
2023/03/21 11:24:51;;;;;;;22.15;10.73;;;13.20;99.90;;;;;;5046105;28;20041;-63
2023/03/21 11:27:17;;;;;;;20.92;11.32;;;17.00;99.90;;;;;;5037236;28;20041;-63
2023/03/21 11:29:48;;;;;;;25.60;13.00;;;18.20;99.90;;;;;;5042866;28;20082;-63
2023/03/21 11:32:36;;;;;;;23.73;11.77;;;17.30;99.90;;;;;;5041670;28;20112;-63
2023/03/21 11:35:19;;;;;;;24.33;11.85;;;17.10;99.90;;;;;;5040303;28;20057;-63
2023/03/21 11:37:50;;;;;;;20.90;11.10;;;14.90;99.90;;;;;;5042777;28;20037;-63
2023/03/21 11:40:23;;;;;;;16.52;9.20;;;14.00;99.90;;;;;;5036254;28;20041;-63
2023/03/21 11:43:17;;;;;;;20.83;10.52;;;15.10;99.90;;;;;;5036327;28;20041;-63
2023/03/21 11:46:11;;;;;;;19.40;10.32;;;15.90;99.90;;;;;;5038351;28;20602;-63
2023/03/21 11:48:43;;;;;;;18.40;10.85;;;15.90;99.90;;;;;;5042950;28;20207;-68
2023/03/21 11:51:22;;;;;;;16.42;9.50;;;13.60;99.90;;;;;;5040886;28;20049;-65
2023/03/21 11:54:25;;;;;;;18.70;9.75;;;17.10;99.90;;;;;;5044173;28;20076;-62
2023/03/21 11:57:00;;;;;;;17.17;10.05;;;16.10;99.90;;;;;;5042401;28;20103;-63
2023/03/21 11:59:41;;;;;;;21.73;10.82;;;13.30;99.90;;;;;;5041161;28;20041;-63
2023/03/21 12:02:35;;;;;;;19.30;10.07;;;13.70;99.90;;;;;;5036882;28;20041;-63
2023/03/21 12:05:18;;;;;;;16.42;9.27;;;13.40;99.90;;;;;;5040109;28;20041;-63
2023/03/21 12:07:47;;;;;;;20.80;11.27;;;18.80;99.90;;;;;;5043285;28;20037;-62
2023/03/21 12:10:32;;;;;;;17.48;11.20;;;13.60;99.90;;;;;;5037081;28;20415;-63
2023/03/21 12:13:19;;;;;;;21.60;10.90;;;13.60;99.90;;;;;;5034507;28;20048;-62
2023/03/21 12:16:02;;;;;;;22.00;11.77;;;18.70;99.90;;;;;;5036098;28;20139;-63
2023/03/21 12:18:49;;;;;;;18.90;10.60;;;14.60;99.90;;;;;;5041121;28;20033;-62
2023/03/21 12:21:18;;;;;;;18.65;10.95;;;14.80;99.90;;;;;;5043967;28;20446;-62
2023/03/21 12:24:04;;;;;;;26.85;12.35;;;14.30;99.90;;;;;;5032769;28;20503;-63
2023/03/21 12:26:31;;;;;;;20.17;11.52;;;16.20;99.90;;;;;;5033334;28;20135;-62
2023/03/21 12:29:41;;;;;;;22.70;11.38;;;18.60;99.90;;;;;;5038352;28;20072;-62
2023/03/21 12:32:31;;;;;;;24.17;12.25;;;17.50;99.90;;;;;;5046174;28;20045;-62
2023/03/21 12:35:44;;;;;;;24.85;12.90;;;13.90;99.90;;;;;;5044977;28;20051;-62
2023/03/21 12:38:24;;;;;;;29.20;14.35;;;14.30;99.90;;;;;;5037303;28;20076;-62
2023/03/21 12:41:08;;;;;;;23.52;13.00;;;16.80;99.90;;;;;;5039886;28;20158;-62
2023/03/21 12:44:13;;;;;;;24.08;13.15;;;13.50;99.90;;;;;;5031270;28;20041;-62
2023/03/21 12:46:43;;;;;;;20.73;13.38;;;13.60;99.90;;;;;;5047026;28;20418;-62